Allouez, Michigan
Current Conditions -  °F | °C
As of 6:53 AM on Thursday 18 Dec 2014 (Local Time) from KCMX Reporting Station
Clear Clear  
Wind Chill: -16°   Ceiling: Unl
Heat Index: -11°   Visibility: 10mi
Dew Point: -12°   Wind: 6mph
Humidity: 88%   Direction: 40°NE
Pressure: 30.28"   Gusts: NA
Location:  47.29°N, 88.41°W
Report Text: KCMX 181153Z AUTO 04005KT 10SM CLR M11/M12 A3028 RMK AO2 SLP276 70002 I1000 I6001 T11061122 11078 21167 51002
Loading
Personal Weather Stations






























Interactive Weather Map New forecast layout! Learn more

10-Day Weather Forecast

Advertisements
Track Severe Weather on mobile